sensor_id;sensor_type;location;lat;lon;timestamp;pressure;altitude;pressure_sealevel;temperature;humidity
73558;BME280;61829;53.286;10.434;2023-12-07T00:01:15;101436.47;;;2.02;94.06
73558;BME280;61829;53.286;10.434;2023-12-07T00:03:41;101448.94;;;2.02;93.78
73558;BME280;61829;53.286;10.434;2023-12-07T00:06:07;101442.78;;;2.01;93.98
73558;BME280;61829;53.286;10.434;2023-12-07T00:08:33;101451.69;;;2.00;93.74
73558;BME280;61829;53.286;10.434;2023-12-07T00:10:59;101452.56;;;2.01;93.66
73558;BME280;61829;53.286;10.434;2023-12-07T00:13:25;101450.00;;;1.99;93.58
73558;BME280;61829;53.286;10.434;2023-12-07T00:15:51;101446.50;;;1.99;93.78
73558;BME280;61829;53.286;10.434;2023-12-07T00:18:18;101449.16;;;1.99;93.40
73558;BME280;61829;53.286;10.434;2023-12-07T00:20:45;101452.56;;;2.01;93.96
73558;BME280;61829;53.286;10.434;2023-12-07T00:23:11;101452.44;;;2.02;93.84
73558;BME280;61829;53.286;10.434;2023-12-07T00:25:37;101458.72;;;2.01;93.98
73558;BME280;61829;53.286;10.434;2023-12-07T00:28:03;101456.78;;;2.03;93.59
73558;BME280;61829;53.286;10.434;2023-12-07T00:30:31;101463.19;;;2.01;93.64
73558;BME280;61829;53.286;10.434;2023-12-07T00:32:57;101464.88;;;2.02;93.79
73558;BME280;61829;53.286;10.434;2023-12-07T00:35:23;101469.22;;;2.03;93.95
73558;BME280;61829;53.286;10.434;2023-12-07T00:37:49;101468.16;;;2.06;93.89
73558;BME280;61829;53.286;10.434;2023-12-07T00:40:16;101474.53;;;2.03;93.67
73558;BME280;61829;53.286;10.434;2023-12-07T00:42:42;101475.38;;;2.03;93.58
73558;BME280;61829;53.286;10.434;2023-12-07T00:45:09;101472.63;;;2.05;93.68
73558;BME280;61829;53.286;10.434;2023-12-07T00:47:37;101470.81;;;2.06;93.88
73558;BME280;61829;53.286;10.434;2023-12-07T00:50:03;101478.78;;;2.06;93.47
73558;BME280;61829;53.286;10.434;2023-12-07T00:52:29;101482.28;;;2.06;93.48
73558;BME280;61829;53.286;10.434;2023-12-07T00:54:55;101484.09;;;2.06;93.71
73558;BME280;61829;53.286;10.434;2023-12-07T00:57:21;101485.78;;;2.07;93.40
73558;BME280;61829;53.286;10.434;2023-12-07T00:59:47;101489.31;;;2.07;93.22
73558;BME280;61829;53.286;10.434;2023-12-07T01:02:13;101486.75;;;2.06;93.95
73558;BME280;61829;53.286;10.434;2023-12-07T01:04:41;101498.22;;;2.06;93.48
73558;BME280;61829;53.286;10.434;2023-12-07T01:07:06;101495.47;;;2.08;93.44
73558;BME280;61829;53.286;10.434;2023-12-07T01:09:33;101499.94;;;2.07;93.48
73558;BME280;61829;53.286;10.434;2023-12-07T01:11:59;101496.31;;;2.08;93.63
73558;BME280;61829;53.286;10.434;2023-12-07T01:14:25;101499.06;;;2.07;93.24
73558;BME280;61829;53.286;10.434;2023-12-07T01:16:51;101495.47;;;2.08;93.52
73558;BME280;61829;53.286;10.434;2023-12-07T01:19:18;101505.13;;;2.09;93.24
73558;BME280;61829;53.286;10.434;2023-12-07T01:21:44;101511.28;;;2.09;93.79
73558;BME280;61829;53.286;10.434;2023-12-07T01:24:10;101514.81;;;2.10;93.61
73558;BME280;61829;53.286;10.434;2023-12-07T01:26:36;101522.66;;;2.11;93.21
73558;BME280;61829;53.286;10.434;2023-12-07T01:29:02;101525.34;;;2.11;93.27
73558;BME280;61829;53.286;10.434;2023-12-07T01:31:29;101526.19;;;2.12;92.99
73558;BME280;61829;53.286;10.434;2023-12-07T01:33:56;101526.19;;;2.12;93.70
73558;BME280;61829;53.286;10.434;2023-12-07T01:36:22;101524.34;;;2.12;93.28
73558;BME280;61829;53.286;10.434;2023-12-07T01:38:48;101538.53;;;2.13;93.30
73558;BME280;61829;53.286;10.434;2023-12-07T01:41:14;101534.06;;;2.13;93.34
73558;BME280;61829;53.286;10.434;2023-12-07T01:43:47;101538.41;;;2.14;93.07
73558;BME280;61829;53.286;10.434;2023-12-07T01:46:15;101533.91;;;2.15;93.23
73558;BME280;61829;53.286;10.434;2023-12-07T01:48:42;101540.94;;;2.16;93.15
73558;BME280;61829;53.286;10.434;2023-12-07T01:51:10;101543.63;;;2.16;93.01
73558;BME280;61829;53.286;10.434;2023-12-07T01:53:39;101547.13;;;2.16;93.49
73558;BME280;61829;53.286;10.434;2023-12-07T01:56:05;101546.16;;;2.17;92.85
73558;BME280;61829;53.286;10.434;2023-12-07T01:58:36;101548.81;;;2.17;93.05
73558;BME280;61829;53.286;10.434;2023-12-07T02:01:02;101546.97;;;2.18;92.95
73558;BME280;61829;53.286;10.434;2023-12-07T02:03:30;101551.47;;;2.17;92.95
73558;BME280;61829;53.286;10.434;2023-12-07T02:05:57;101554.97;;;2.18;92.97
73558;BME280;61829;53.286;10.434;2023-12-07T02:08:24;101555.84;;;2.18;92.67
73558;BME280;61829;53.286;10.434;2023-12-07T02:10:50;101565.59;;;2.18;93.01
73558;BME280;61829;53.286;10.434;2023-12-07T02:13:20;101559.44;;;2.17;92.55
73558;BME280;61829;53.286;10.434;2023-12-07T02:15:58;101560.41;;;2.16;92.92
73558;BME280;61829;53.286;10.434;2023-12-07T02:18:35;101552.44;;;2.16;92.75
73558;BME280;61829;53.286;10.434;2023-12-07T02:21:18;101549.03;;;2.14;92.78
73558;BME280;61829;53.286;10.434;2023-12-07T02:23:53;101557.00;;;2.14;93.19
73558;BME280;61829;53.286;10.434;2023-12-07T02:26:20;101555.19;;;2.15;92.79
73558;BME280;61829;53.286;10.434;2023-12-07T02:28:48;101550.84;;;2.14;92.65
73558;BME280;61829;53.286;10.434;2023-12-07T02:31:14;101557.84;;;2.15;93.17
73558;BME280;61829;53.286;10.434;2023-12-07T02:33:40;101555.19;;;2.15;93.04
73558;BME280;61829;53.286;10.434;2023-12-07T02:36:06;101562.31;;;2.14;92.80
73558;BME280;61829;53.286;10.434;2023-12-07T02:38:32;101558.72;;;2.15;93.04
73558;BME280;61829;53.286;10.434;2023-12-07T02:41:00;101563.91;;;2.17;92.83
73558;BME280;61829;53.286;10.434;2023-12-07T02:43:27;101565.81;;;2.15;92.93
73558;BME280;61829;53.286;10.434;2023-12-07T02:45:56;101567.63;;;2.14;92.53
73558;BME280;61829;53.286;10.434;2023-12-07T02:48:23;101567.78;;;2.13;92.83
73558;BME280;61829;53.286;10.434;2023-12-07T02:54:30;101564.25;;;2.12;92.82
73558;BME280;61829;53.286;10.434;2023-12-07T02:56:58;101568.63;;;2.13;92.80
73558;BME280;61829;53.286;10.434;2023-12-07T02:59:24;101568.47;;;2.15;93.34
73558;BME280;61829;53.286;10.434;2023-12-07T03:01:50;101572.00;;;2.15;92.72
73558;BME280;61829;53.286;10.434;2023-12-07T03:04:16;101572.84;;;2.16;93.28
73558;BME280;61829;53.286;10.434;2023-12-07T03:06:42;101576.38;;;2.16;92.72
73558;BME280;61829;53.286;10.434;2023-12-07T03:09:08;101573.69;;;2.16;92.91
73558;BME280;61829;53.286;10.434;2023-12-07T03:11:34;101579.03;;;2.16;92.84
73558;BME280;61829;53.286;10.434;2023-12-07T03:14:00;101579.03;;;2.16;92.73
73558;BME280;61829;53.286;10.434;2023-12-07T03:16:26;101579.88;;;2.17;93.48
73558;BME280;61829;53.286;10.434;2023-12-07T03:18:52;101581.69;;;2.16;92.86
73558;BME280;61829;53.286;10.434;2023-12-07T03:21:19;101571.88;;;2.17;92.78
73558;BME280;61829;53.286;10.434;2023-12-07T03:23:45;101585.09;;;2.18;92.91
73558;BME280;61829;53.286;10.434;2023-12-07T03:26:11;101579.75;;;2.18;93.05
73558;BME280;61829;53.286;10.434;2023-12-07T03:28:37;101579.75;;;2.18;93.21
73558;BME280;61829;53.286;10.434;2023-12-07T03:31:14;101572.63;;;2.19;93.27
73558;BME280;61829;53.286;10.434;2023-12-07T03:33:44;101568.16;;;2.19;93.26
73558;BME280;61829;53.286;10.434;2023-12-07T03:36:13;101569.97;;;2.19;93.08
73558;BME280;61829;53.286;10.434;2023-12-07T03:38:39;101580.59;;;2.19;93.25
73558;BME280;61829;53.286;10.434;2023-12-07T03:41:05;101571.66;;;2.20;93.08
73558;BME280;61829;53.286;10.434;2023-12-07T03:43:31;101578.03;;;2.17;93.09
73558;BME280;61829;53.286;10.434;2023-12-07T03:45:57;101580.72;;;2.17;93.39
73558;BME280;61829;53.286;10.434;2023-12-07T03:48:23;101576.22;;;2.18;93.31
73558;BME280;61829;53.286;10.434;2023-12-07T03:50:49;101584.22;;;2.18;93.47
73558;BME280;61829;53.286;10.434;2023-12-07T03:53:15;101578.03;;;2.17;93.35
73558;BME280;61829;53.286;10.434;2023-12-07T03:55:41;101572.72;;;2.17;93.46
73558;BME280;61829;53.286;10.434;2023-12-07T03:58:07;101582.44;;;2.18;93.35
73558;BME280;61829;53.286;10.434;2023-12-07T04:00:33;101586.78;;;2.19;93.67
73558;BME280;61829;53.286;10.434;2023-12-07T04:02:59;101583.28;;;2.19;93.54
73558;BME280;61829;53.286;10.434;2023-12-07T04:09:16;101584.13;;;2.19;93.43
73558;BME280;61829;53.286;10.434;2023-12-07T04:11:41;101585.09;;;2.18;93.65
73558;BME280;61829;53.286;10.434;2023-12-07T04:14:08;101584.13;;;2.19;93.57
73558;BME280;61829;53.286;10.434;2023-12-07T04:16:33;101582.44;;;2.18;93.63
73558;BME280;61829;53.286;10.434;2023-12-07T04:19:00;101578.78;;;2.19;93.59
73558;BME280;61829;53.286;10.434;2023-12-07T04:21:25;101590.28;;;2.20;94.24
73558;BME280;61829;53.286;10.434;2023-12-07T04:23:52;101590.19;;;2.21;93.77
73558;BME280;61829;53.286;10.434;2023-12-07T04:26:18;101599.00;;;2.22;93.83
73558;BME280;61829;53.286;10.434;2023-12-07T04:28:44;101598.03;;;2.23;93.76
73558;BME280;61829;53.286;10.434;2023-12-07T04:31:10;101600.69;;;2.23;93.79
73558;BME280;61829;53.286;10.434;2023-12-07T04:33:36;101605.16;;;2.22;93.72
73558;BME280;61829;53.286;10.434;2023-12-07T04:36:02;101596.34;;;2.22;93.54
73558;BME280;61829;53.286;10.434;2023-12-07T04:38:30;101599.00;;;2.22;93.57
73558;BME280;61829;53.286;10.434;2023-12-07T04:40:57;101590.19;;;2.21;93.84
73558;BME280;61829;53.286;10.434;2023-12-07T04:43:23;101590.28;;;2.20;93.79
73558;BME280;61829;53.286;10.434;2023-12-07T04:45:49;101596.44;;;2.20;93.71
73558;BME280;61829;53.286;10.434;2023-12-07T04:48:16;101587.53;;;2.21;93.95
73558;BME280;61829;53.286;10.434;2023-12-07T04:50:45;101602.50;;;2.22;94.01
73558;BME280;61829;53.286;10.434;2023-12-07T04:53:11;101597.19;;;2.22;93.96
73558;BME280;61829;53.286;10.434;2023-12-07T04:55:37;101600.69;;;2.23;93.69
73558;BME280;61829;53.286;10.434;2023-12-07T04:58:03;101597.19;;;2.22;93.65
73558;BME280;61829;53.286;10.434;2023-12-07T05:00:29;101604.31;;;2.22;93.91
73558;BME280;61829;53.286;10.434;2023-12-07T05:02:55;101610.47;;;2.22;93.79
73558;BME280;61829;53.286;10.434;2023-12-07T05:05:21;101610.47;;;2.22;93.72
73558;BME280;61829;53.286;10.434;2023-12-07T05:07:48;101606.13;;;2.21;93.65
73558;BME280;61829;53.286;10.434;2023-12-07T05:10:13;101607.81;;;2.22;93.94
73558;BME280;61829;53.286;10.434;2023-12-07T05:12:44;101613.13;;;2.22;93.92
73558;BME280;61829;53.286;10.434;2023-12-07T05:15:10;101616.63;;;2.23;93.79
73558;BME280;61829;53.286;10.434;2023-12-07T05:17:36;101621.00;;;2.24;93.85
73558;BME280;61829;53.286;10.434;2023-12-07T05:20:02;101622.78;;;2.23;93.91
73558;BME280;61829;53.286;10.434;2023-12-07T05:22:28;101627.19;;;2.24;94.12
73558;BME280;61829;53.286;10.434;2023-12-07T05:24:54;101617.47;;;2.23;93.95
73558;BME280;61829;53.286;10.434;2023-12-07T05:27:20;101617.38;;;2.25;93.90
73558;BME280;61829;53.286;10.434;2023-12-07T05:29:47;101624.53;;;2.24;93.98
73558;BME280;61829;53.286;10.434;2023-12-07T05:32:13;101619.06;;;2.26;94.26
73558;BME280;61829;53.286;10.434;2023-12-07T05:34:39;101616.41;;;2.26;93.93
73558;BME280;61829;53.286;10.434;2023-12-07T05:37:05;101623.44;;;2.27;94.05
73558;BME280;61829;53.286;10.434;2023-12-07T05:40:05;101625.97;;;2.29;93.59
73558;BME280;61829;53.286;10.434;2023-12-07T05:42:32;101632.28;;;2.28;93.85
73558;BME280;61829;53.286;10.434;2023-12-07T05:44:58;101637.59;;;2.28;93.60
73558;BME280;61829;53.286;10.434;2023-12-07T05:47:26;101637.59;;;2.28;93.83
73558;BME280;61829;53.286;10.434;2023-12-07T05:49:55;101636.63;;;2.29;93.90
73558;BME280;61829;53.286;10.434;2023-12-07T05:52:24;101642.78;;;2.29;94.03
73558;BME280;61829;53.286;10.434;2023-12-07T05:54:49;101636.63;;;2.29;93.90
73558;BME280;61829;53.286;10.434;2023-12-07T05:57:16;101638.34;;;2.30;93.77
73558;BME280;61829;53.286;10.434;2023-12-07T05:59:41;101627.69;;;2.30;93.91
73558;BME280;61829;53.286;10.434;2023-12-07T06:02:09;101634.69;;;2.31;93.85
73558;BME280;61829;53.286;10.434;2023-12-07T06:04:34;101628.41;;;2.32;94.23
73558;BME280;61829;53.286;10.434;2023-12-07T06:07:01;101632.66;;;2.34;94.18
73558;BME280;61829;53.286;10.434;2023-12-07T06:09:27;101629.06;;;2.35;93.39
73558;BME280;61829;53.286;10.434;2023-12-07T06:11:55;101632.56;;;2.36;93.78
73558;BME280;61829;53.286;10.434;2023-12-07T06:14:21;101635.09;;;2.37;93.93
73558;BME280;61829;53.286;10.434;2023-12-07T06:16:49;101628.94;;;2.37;93.71
73558;BME280;61829;53.286;10.434;2023-12-07T06:19:15;101632.44;;;2.37;93.99
73558;BME280;61829;53.286;10.434;2023-12-07T06:21:42;101633.31;;;2.38;93.56
73558;BME280;61829;53.286;10.434;2023-12-07T06:24:09;101635.97;;;2.38;93.62
73558;BME280;61829;53.286;10.434;2023-12-07T06:26:36;101637.66;;;2.39;93.84
73558;BME280;61829;53.286;10.434;2023-12-07T06:29:02;101636.69;;;2.40;93.81
73558;BME280;61829;53.286;10.434;2023-12-07T06:31:29;101637.53;;;2.40;93.73
73558;BME280;61829;53.286;10.434;2023-12-07T06:33:55;101641.16;;;2.39;93.73
73558;BME280;61829;53.286;10.434;2023-12-07T06:36:22;101642.97;;;2.39;93.91
73558;BME280;61829;53.286;10.434;2023-12-07T06:38:49;101644.66;;;2.40;93.50
73558;BME280;61829;53.286;10.434;2023-12-07T06:41:15;101648.16;;;2.40;93.69
73558;BME280;61829;53.286;10.434;2023-12-07T06:43:41;101648.16;;;2.40;93.81
73558;BME280;61829;53.286;10.434;2023-12-07T06:46:13;101652.66;;;2.40;93.78
73558;BME280;61829;53.286;10.434;2023-12-07T06:48:40;101655.31;;;2.40;94.04
73558;BME280;61829;53.286;10.434;2023-12-07T06:51:06;101664.13;;;2.40;93.56
73558;BME280;61829;53.286;10.434;2023-12-07T06:53:32;101657.97;;;2.40;93.74
73558;BME280;61829;53.286;10.434;2023-12-07T06:59:12;101665.31;;;2.36;94.08
73558;BME280;61829;53.286;10.434;2023-12-07T07:01:38;101667.13;;;2.36;94.29
73558;BME280;61829;53.286;10.434;2023-12-07T07:04:04;101671.50;;;2.37;94.36
73558;BME280;61829;53.286;10.434;2023-12-07T07:06:30;101671.50;;;2.37;94.42
73558;BME280;61829;53.286;10.434;2023-12-07T07:08:56;101674.06;;;2.38;94.12
73558;BME280;61829;53.286;10.434;2023-12-07T07:11:22;101673.22;;;2.38;94.40
73558;BME280;61829;53.286;10.434;2023-12-07T07:14:08;101680.31;;;2.37;94.63
73558;BME280;61829;53.286;10.434;2023-12-07T07:16:34;101682.13;;;2.37;94.21
73558;BME280;61829;53.286;10.434;2023-12-07T07:19:00;101682.13;;;2.37;94.37
73558;BME280;61829;53.286;10.434;2023-12-07T07:21:26;101683.72;;;2.39;94.04
73558;BME280;61829;53.286;10.434;2023-12-07T07:23:52;101684.56;;;2.40;94.23
73558;BME280;61829;53.286;10.434;2023-12-07T07:26:18;101683.63;;;2.41;94.48
73558;BME280;61829;53.286;10.434;2023-12-07T07:32:04;101688.94;;;2.41;94.29
73558;BME280;61829;53.286;10.434;2023-12-07T07:34:31;101683.50;;;2.42;94.43
73558;BME280;61829;53.286;10.434;2023-12-07T07:36:57;101685.31;;;2.42;94.36
73558;BME280;61829;53.286;10.434;2023-12-07T07:39:23;101689.56;;;2.44;94.21
73558;BME280;61829;53.286;10.434;2023-12-07T07:41:49;101686.91;;;2.44;94.39
73558;BME280;61829;53.286;10.434;2023-12-07T07:44:15;101688.50;;;2.47;94.63
73558;BME280;61829;53.286;10.434;2023-12-07T07:46:45;101680.81;;;2.55;93.99
73558;BME280;61829;53.286;10.434;2023-12-07T07:49:11;101683.13;;;2.60;93.94
73558;BME280;61829;53.286;10.434;2023-12-07T07:51:37;101684.69;;;2.62;93.81
73558;BME280;61829;53.286;10.434;2023-12-07T07:54:04;101686.41;;;2.63;94.13
73558;BME280;61829;53.286;10.434;2023-12-07T07:56:30;101689.78;;;2.65;93.72
73558;BME280;61829;53.286;10.434;2023-12-07T07:58:56;101687.13;;;2.65;93.76
73558;BME280;61829;53.286;10.434;2023-12-07T08:01:26;101694.28;;;2.65;93.89
73558;BME280;61829;53.286;10.434;2023-12-07T08:03:52;101703.09;;;2.65;93.69
73558;BME280;61829;53.286;10.434;2023-12-07T08:06:18;101698.75;;;2.64;93.48
73558;BME280;61829;53.286;10.434;2023-12-07T08:08:44;101699.50;;;2.66;93.42
73558;BME280;61829;53.286;10.434;2023-12-07T08:11:10;101703.00;;;2.67;93.54
73558;BME280;61829;53.286;10.434;2023-12-07T08:13:36;101708.19;;;2.68;93.68
73558;BME280;61829;53.286;10.434;2023-12-07T08:16:03;101715.34;;;2.68;93.56
73558;BME280;61829;53.286;10.434;2023-12-07T08:18:33;101723.22;;;2.69;93.84
73558;BME280;61829;53.286;10.434;2023-12-07T08:20:59;101727.69;;;2.69;93.47
73558;BME280;61829;53.286;10.434;2023-12-07T08:23:25;101721.41;;;2.70;93.70
73558;BME280;61829;53.286;10.434;2023-12-07T08:25:51;101722.38;;;2.69;93.66
73558;BME280;61829;53.286;10.434;2023-12-07T08:28:20;101724.38;;;2.65;93.61
73558;BME280;61829;53.286;10.434;2023-12-07T08:30:46;101729.09;;;2.62;94.15
73558;BME280;61829;53.286;10.434;2023-12-07T08:33:12;101721.22;;;2.60;94.06
73558;BME280;61829;53.286;10.434;2023-12-07T08:35:42;101725.47;;;2.63;94.39
73558;BME280;61829;53.286;10.434;2023-12-07T08:38:15;101726.22;;;2.65;94.39
73558;BME280;61829;53.286;10.434;2023-12-07T08:40:42;101725.03;;;2.69;94.16
73558;BME280;61829;53.286;10.434;2023-12-07T08:43:10;101729.16;;;2.73;94.78
73558;BME280;61829;53.286;10.434;2023-12-07T08:45:39;101725.44;;;2.76;94.59
73558;BME280;61829;53.286;10.434;2023-12-07T08:48:06;101726.91;;;2.80;94.31
73558;BME280;61829;53.286;10.434;2023-12-07T08:50:32;101731.03;;;2.84;94.43
73558;BME280;61829;53.286;10.434;2023-12-07T08:52:58;101728.16;;;2.87;94.40
73558;BME280;61829;53.286;10.434;2023-12-07T08:55:24;101730.59;;;2.90;94.57
73558;BME280;61829;53.286;10.434;2023-12-07T08:57:50;101732.06;;;2.94;94.03
73558;BME280;61829;53.286;10.434;2023-12-07T09:00:18;101735.38;;;2.98;94.20
73558;BME280;61829;53.286;10.434;2023-12-07T09:02:49;101736.94;;;3.00;93.84
73558;BME280;61829;53.286;10.434;2023-12-07T09:05:16;101742.03;;;3.03;94.22
73558;BME280;61829;53.286;10.434;2023-12-07T09:07:42;101736.50;;;3.06;94.07
73558;BME280;61829;53.286;10.434;2023-12-07T09:10:09;101747.75;;;3.10;94.36
73558;BME280;61829;53.286;10.434;2023-12-07T09:12:38;101750.09;;;3.14;93.66
73558;BME280;61829;53.286;10.434;2023-12-07T09:15:16;101748.88;;;3.19;94.39
73558;BME280;61829;53.286;10.434;2023-12-07T09:17:42;101751.22;;;3.23;93.79
73558;BME280;61829;53.286;10.434;2023-12-07T09:20:10;101745.75;;;3.25;93.26
73558;BME280;61829;53.286;10.434;2023-12-07T09:22:46;101758.00;;;3.27;93.67
73558;BME280;61829;53.286;10.434;2023-12-07T09:25:17;101745.28;;;3.31;93.03
73558;BME280;61829;53.286;10.434;2023-12-07T09:27:43;101750.53;;;3.32;93.37
73558;BME280;61829;53.286;10.434;2023-12-07T09:30:10;101753.94;;;3.34;94.13
73558;BME280;61829;53.286;10.434;2023-12-07T09:32:37;101753.78;;;3.36;93.31
73558;BME280;61829;53.286;10.434;2023-12-07T09:35:04;101752.72;;;3.38;93.61
73558;BME280;61829;53.286;10.434;2023-12-07T09:37:33;101755.28;;;3.40;93.87
73558;BME280;61829;53.286;10.434;2023-12-07T09:40:02;101756.13;;;3.41;93.06
73558;BME280;61829;53.286;10.434;2023-12-07T09:42:35;101755.91;;;3.44;93.61
73558;BME280;61829;53.286;10.434;2023-12-07T09:45:02;101755.75;;;3.45;93.50
73558;BME280;61829;53.286;10.434;2023-12-07T09:47:28;101745.97;;;3.46;92.92
73558;BME280;61829;53.286;10.434;2023-12-07T09:49:58;101753.09;;;3.45;93.02
73558;BME280;61829;53.286;10.434;2023-12-07T09:52:24;101754.06;;;3.44;92.86
73558;BME280;61829;53.286;10.434;2023-12-07T09:54:54;101748.75;;;3.44;92.80
73558;BME280;61829;53.286;10.434;2023-12-07T09:57:21;101751.16;;;3.47;93.07
73558;BME280;61829;53.286;10.434;2023-12-07T10:04:16;101748.28;;;3.50;92.25
73558;BME280;61829;53.286;10.434;2023-12-07T10:06:52;101749.00;;;3.52;93.03
73558;BME280;61829;53.286;10.434;2023-12-07T10:09:28;101747.94;;;3.55;92.02
73558;BME280;61829;53.286;10.434;2023-12-07T10:12:03;101744.44;;;3.54;92.23
73558;BME280;61829;53.286;10.434;2023-12-07T10:14:29;101742.59;;;3.55;91.70
73558;BME280;61829;53.286;10.434;2023-12-07T10:16:56;101748.78;;;3.55;92.22
73558;BME280;61829;53.286;10.434;2023-12-07T10:19:23;101746.84;;;3.57;92.00
73558;BME280;61829;53.286;10.434;2023-12-07T10:21:51;101753.03;;;3.58;92.45
73558;BME280;61829;53.286;10.434;2023-12-07T10:24:18;101752.94;;;3.59;91.92
73558;BME280;61829;53.286;10.434;2023-12-07T10:26:46;101747.59;;;3.59;91.56
73558;BME280;61829;53.286;10.434;2023-12-07T10:29:12;101742.13;;;3.61;91.87
73558;BME280;61829;53.286;10.434;2023-12-07T10:31:39;101742.88;;;3.63;92.09
73558;BME280;61829;53.286;10.434;2023-12-07T10:34:17;101741.06;;;3.64;91.54
73558;BME280;61829;53.286;10.434;2023-12-07T10:36:51;101744.47;;;3.66;91.67
73558;BME280;61829;53.286;10.434;2023-12-07T10:39:18;101738.91;;;3.69;91.38
73558;BME280;61829;53.286;10.434;2023-12-07T10:41:47;101742.41;;;3.69;91.58
73558;BME280;61829;53.286;10.434;2023-12-07T10:44:14;101737.91;;;3.70;91.03
73558;BME280;61829;53.286;10.434;2023-12-07T10:46:42;101736.31;;;3.67;91.36
73558;BME280;61829;53.286;10.434;2023-12-07T10:49:14;101744.22;;;3.69;91.66
73558;BME280;61829;53.286;10.434;2023-12-07T10:51:45;101743.13;;;3.71;90.83
73558;BME280;61829;53.286;10.434;2023-12-07T10:54:18;101742.06;;;3.74;91.33
73558;BME280;61829;53.286;10.434;2023-12-07T10:56:48;101736.72;;;3.74;90.99
73558;BME280;61829;53.286;10.434;2023-12-07T10:59:16;101735.75;;;3.75;90.80
73558;BME280;61829;53.286;10.434;2023-12-07T11:01:43;101740.84;;;3.78;90.78
73558;BME280;61829;53.286;10.434;2023-12-07T11:04:13;101744.84;;;3.83;91.78
73558;BME280;61829;53.286;10.434;2023-12-07T11:06:53;101754.44;;;3.86;90.56
73558;BME280;61829;53.286;10.434;2023-12-07T11:09:26;101753.44;;;3.87;91.85
73558;BME280;61829;53.286;10.434;2023-12-07T11:12:08;101747.88;;;3.90;91.29
73558;BME280;61829;53.286;10.434;2023-12-07T11:14:37;101742.56;;;3.90;90.58
73558;BME280;61829;53.286;10.434;2023-12-07T11:17:04;101738.94;;;3.91;91.53
73558;BME280;61829;53.286;10.434;2023-12-07T11:22:05;101738.56;;;3.96;91.32
73558;BME280;61829;53.286;10.434;2023-12-07T11:24:31;101733.97;;;3.98;90.98
73558;BME280;61829;53.286;10.434;2023-12-07T11:26:58;101732.38;;;3.95;90.08
73558;BME280;61829;53.286;10.434;2023-12-07T11:29:25;101743.03;;;3.95;90.70
73558;BME280;61829;53.286;10.434;2023-12-07T11:31:52;101734.19;;;3.95;90.72
73558;BME280;61829;53.286;10.434;2023-12-07T11:34:36;101741.13;;;3.97;90.70
73558;BME280;61829;53.286;10.434;2023-12-07T11:37:08;101731.44;;;3.96;89.66
73558;BME280;61829;53.286;10.434;2023-12-07T11:39:44;101730.44;;;3.97;89.78
73558;BME280;61829;53.286;10.434;2023-12-07T11:42:18;101730.44;;;3.97;89.81
73558;BME280;61829;53.286;10.434;2023-12-07T11:44:49;101736.53;;;3.99;89.89
73558;BME280;61829;53.286;10.434;2023-12-07T11:47:25;101736.28;;;4.02;90.12
73558;BME280;61829;53.286;10.434;2023-12-07T11:50:04;101737.13;;;4.03;90.11
73558;BME280;61829;53.286;10.434;2023-12-07T11:52:39;101740.63;;;4.03;89.34
73558;BME280;61829;53.286;10.434;2023-12-07T11:55:06;101744.88;;;4.06;89.25
73558;BME280;61829;53.286;10.434;2023-12-07T11:57:32;101724.38;;;4.07;90.15
73558;BME280;61829;53.286;10.434;2023-12-07T11:59:59;101729.63;;;4.08;89.48
73558;BME280;61829;53.286;10.434;2023-12-07T12:02:26;101715.06;;;4.12;89.22
73558;BME280;61829;53.286;10.434;2023-12-07T12:04:51;101721.22;;;4.13;89.54
73558;BME280;61829;53.286;10.434;2023-12-07T12:07:21;101723.91;;;4.13;89.70
73558;BME280;61829;53.286;10.434;2023-12-07T12:09:56;101718.72;;;4.11;89.65
73558;BME280;61829;53.286;10.434;2023-12-07T12:12:23;101720.38;;;4.12;89.28
73558;BME280;61829;53.286;10.434;2023-12-07T12:14:53;101717.72;;;4.12;89.64
73558;BME280;61829;53.286;10.434;2023-12-07T12:17:29;101718.56;;;4.13;89.53
73558;BME280;61829;53.286;10.434;2023-12-07T12:19:59;101713.38;;;4.11;89.79
73558;BME280;61829;53.286;10.434;2023-12-07T12:22:41;101711.53;;;4.12;89.32
73558;BME280;61829;53.286;10.434;2023-12-07T12:25:13;101699.91;;;4.13;89.12
73558;BME280;61829;53.286;10.434;2023-12-07T12:27:40;101693.84;;;4.11;89.89
73558;BME280;61829;53.286;10.434;2023-12-07T12:30:06;101700.03;;;4.11;89.52
73558;BME280;61829;53.286;10.434;2023-12-07T12:32:43;101699.19;;;4.11;89.01
73558;BME280;61829;53.286;10.434;2023-12-07T12:35:09;101699.19;;;4.11;89.49
73558;BME280;61829;53.286;10.434;2023-12-07T12:37:45;101698.31;;;4.10;89.92
73558;BME280;61829;53.286;10.434;2023-12-07T12:40:12;101696.75;;;4.08;89.07
73558;BME280;61829;53.286;10.434;2023-12-07T12:42:49;101686.22;;;4.06;89.57
73558;BME280;61829;53.286;10.434;2023-12-07T12:45:25;101687.91;;;4.07;89.30
73558;BME280;61829;53.286;10.434;2023-12-07T12:47:59;101687.78;;;4.09;89.37
73558;BME280;61829;53.286;10.434;2023-12-07T12:50:39;101687.19;;;4.16;89.31
73558;BME280;61829;53.286;10.434;2023-12-07T12:53:07;101682.44;;;4.20;88.83
73558;BME280;61829;53.286;10.434;2023-12-07T12:55:39;101681.34;;;4.22;88.71
73558;BME280;61829;53.286;10.434;2023-12-07T12:58:10;101688.53;;;4.22;89.25
73558;BME280;61829;53.286;10.434;2023-12-07T13:00:39;101691.19;;;4.22;88.83
73558;BME280;61829;53.286;10.434;2023-12-07T13:03:07;101687.78;;;4.20;89.31
73558;BME280;61829;53.286;10.434;2023-12-07T13:05:36;101685.13;;;4.20;88.85
73558;BME280;61829;53.286;10.434;2023-12-07T13:08:10;101684.13;;;4.21;89.17
73558;BME280;61829;53.286;10.434;2023-12-07T13:10:36;101682.44;;;4.20;89.08
73558;BME280;61829;53.286;10.434;2023-12-07T13:13:02;101679.88;;;4.18;89.42
73558;BME280;61829;53.286;10.434;2023-12-07T13:15:32;101673.72;;;4.18;89.42